Terminal Aerodrome Forecast
Issued by NWS

Home | Current Version | Previous Version | Text Only | Print | Product List | Glossary On
Versions: 1 2 3 4 5 6 7 8 9 10 11 12 13 14 15 16 17 18 19 20
000
FTUS43 KLSX 220520
TAFCPS
TAF
KCPS 220520Z 2206/2306 08010KT P6SM OVC110
     FM221200 07010G20KT 6SM -SHRA OVC070
     FM221500 07010G20KT P6SM VCSH OVC070
     FM230300 06010KT P6SM SCT025 OVC040=

USA.gov is the U.S. government's official web portal to all federal, state and local government web resources and services.